Time;durP1;ratioP1;P1;durP2;ratioP2;P2;SDS_P1;SDS_P2;PMS_P1;PMS_P2;Temp;Humidity;BMP_temperature;BMP_pressure;BME280_temperature;BME280_humidity;BME280_pressure;Samples;Min_cycle;Max_cycle;Signal;HPM_P1;HPM_P2
2023/08/10 00:02:04;;;;;;;186.40;54.20;;;;;;;;;;5054775;28;20423;-53
2023/08/10 00:04:30;;;;;;;187.13;55.00;;;;;;;;;;5054479;28;20458;-51
2023/08/10 00:06:56;;;;;;;189.10;55.65;;;;;;;;;;5049373;28;20882;-52
2023/08/10 00:09:22;;;;;;;188.87;55.27;;;;;;;;;;5054652;28;20224;-55
2023/08/10 00:11:48;;;;;;;186.83;53.80;;;;;;;;;;5054126;28;20783;-52
2023/08/10 00:14:14;;;;;;;185.27;53.57;;;;;;;;;;5054507;28;20418;-51
2023/08/10 00:16:40;;;;;;;186.13;54.33;;;;;;;;;;5058186;28;20414;-51
2023/08/10 00:19:06;;;;;;;188.03;54.97;;;;;;;;;;5058707;28;20406;-50
2023/08/10 00:21:32;;;;;;;185.97;53.80;;;;;;;;;;5055362;28;20449;-53
2023/08/10 00:23:58;;;;;;;187.37;54.60;;;;;;;;;;5054441;28;20832;-52
2023/08/10 00:26:24;;;;;;;186.27;52.90;;;;;;;;;;5054110;28;20780;-52
2023/08/10 00:28:51;;;;;;;187.32;53.55;;;;;;;;;;5052473;28;20178;-53
2023/08/10 00:31:17;;;;;;;186.88;53.58;;;;;;;;;;5053936;28;20199;-51
2023/08/10 00:33:43;;;;;;;187.95;55.28;;;;;;;;;;5054183;28;20179;-53
2023/08/10 00:36:09;;;;;;;185.70;53.20;;;;;;;;;;5054280;28;20228;-52
2023/08/10 00:38:36;;;;;;;188.68;55.28;;;;;;;;;;5052798;28;20480;-51
2023/08/10 00:41:02;;;;;;;186.48;53.72;;;;;;;;;;5053820;28;20192;-52
2023/08/10 00:43:28;;;;;;;195.80;60.97;;;;;;;;;;5051070;28;20240;-56
2023/08/10 00:45:54;;;;;;;186.07;54.90;;;;;;;;;;5051494;28;20203;-53
2023/08/10 00:48:21;;;;;;;185.73;54.22;;;;;;;;;;5053817;28;20483;-52
2023/08/10 00:50:48;;;;;;;185.02;53.40;;;;;;;;;;5051886;28;20196;-51
2023/08/10 00:53:14;;;;;;;184.85;53.33;;;;;;;;;;5050478;28;20182;-52
2023/08/10 00:55:41;;;;;;;184.95;54.40;;;;;;;;;;5054094;28;20179;-51
2023/08/10 00:58:07;;;;;;;185.18;53.95;;;;;;;;;;5053869;28;20205;-51
2023/08/10 01:00:34;;;;;;;184.60;53.80;;;;;;;;;;5052997;28;20223;-53
2023/08/10 01:03:00;;;;;;;186.13;55.00;;;;;;;;;;5053091;28;20512;-55
2023/08/10 01:05:30;;;;;;;188.67;55.50;;;;;;;;;;5051652;28;20662;-55
2023/08/10 01:08:01;;;;;;;184.50;53.53;;;;;;;;;;5053570;28;20783;-55
2023/08/10 01:10:32;;;;;;;188.90;57.17;;;;;;;;;;5053635;28;20198;-54
2023/08/10 01:13:01;;;;;;;183.98;53.53;;;;;;;;;;5053427;28;20182;-53
2023/08/10 01:15:38;;;;;;;187.60;55.28;;;;;;;;;;5053426;28;20179;-54
2023/08/10 01:18:08;;;;;;;183.40;53.72;;;;;;;;;;5051838;28;20183;-55
2023/08/10 01:20:35;;;;;;;185.05;54.10;;;;;;;;;;5053016;28;20197;-54
2023/08/10 01:23:07;;;;;;;186.82;55.50;;;;;;;;;;5053314;28;20237;-53
2023/08/10 01:25:34;;;;;;;186.43;55.72;;;;;;;;;;5053099;28;20173;-54
2023/08/10 01:28:00;;;;;;;184.07;53.30;;;;;;;;;;5053326;28;20171;-54
2023/08/10 01:30:26;;;;;;;183.82;53.60;;;;;;;;;;5052846;28;20215;-54
2023/08/10 01:32:52;;;;;;;186.07;54.60;;;;;;;;;;5051695;28;20178;-54
2023/08/10 01:35:18;;;;;;;184.47;53.60;;;;;;;;;;5053029;28;20172;-55
2023/08/10 01:37:44;;;;;;;184.10;52.50;;;;;;;;;;5053106;28;20402;-53
2023/08/10 01:40:13;;;;;;;185.07;54.20;;;;;;;;;;5046606;28;20845;-54
2023/08/10 01:42:40;;;;;;;183.70;53.25;;;;;;;;;;5041505;28;20458;-54
2023/08/10 01:45:07;;;;;;;186.35;55.03;;;;;;;;;;5048025;28;20175;-54
2023/08/10 01:47:42;;;;;;;184.10;53.65;;;;;;;;;;5052129;28;20723;-54
2023/08/10 01:50:09;;;;;;;184.75;53.45;;;;;;;;;;5052050;28;20186;-55
2023/08/10 01:52:38;;;;;;;185.60;54.25;;;;;;;;;;5052694;28;20270;-53
2023/08/10 01:55:05;;;;;;;184.70;54.80;;;;;;;;;;5052932;28;20171;-54
2023/08/10 01:57:31;;;;;;;184.77;53.40;;;;;;;;;;5052752;28;20283;-53
2023/08/10 01:59:57;;;;;;;188.88;56.55;;;;;;;;;;5051182;28;20195;-54
2023/08/10 02:02:23;;;;;;;185.15;53.53;;;;;;;;;;5052332;28;20556;-55
2023/08/10 02:04:49;;;;;;;184.37;53.70;;;;;;;;;;5052515;28;20172;-54
2023/08/10 02:07:15;;;;;;;183.37;53.57;;;;;;;;;;5052359;28;20917;-54
2023/08/10 02:09:41;;;;;;;185.67;54.63;;;;;;;;;;5052510;28;20409;-54
2023/08/10 02:12:07;;;;;;;183.93;53.60;;;;;;;;;;5052282;28;20444;-52
2023/08/10 02:14:33;;;;;;;184.07;53.67;;;;;;;;;;5050974;28;21567;-54
2023/08/10 02:16:59;;;;;;;182.47;53.00;;;;;;;;;;5052338;28;20198;-54
2023/08/10 02:19:25;;;;;;;183.80;53.23;;;;;;;;;;5052192;28;20450;-54
2023/08/10 02:21:51;;;;;;;184.90;53.83;;;;;;;;;;5051865;28;20452;-54
2023/08/10 02:24:17;;;;;;;186.68;54.35;;;;;;;;;;5052030;28;20213;-53
2023/08/10 02:26:43;;;;;;;182.82;52.58;;;;;;;;;;5045307;28;20593;-52
2023/08/10 02:29:09;;;;;;;184.13;53.13;;;;;;;;;;5052109;28;20599;-52
2023/08/10 02:31:35;;;;;;;185.70;53.60;;;;;;;;;;5051684;28;20199;-52
2023/08/10 02:34:01;;;;;;;184.90;53.47;;;;;;;;;;5047609;28;20401;-53
2023/08/10 02:36:27;;;;;;;184.63;53.60;;;;;;;;;;5052354;28;20435;-54
2023/08/10 02:38:53;;;;;;;185.40;53.42;;;;;;;;;;5047139;28;20421;-51
2023/08/10 02:41:19;;;;;;;184.87;53.00;;;;;;;;;;5047888;28;20217;-51
2023/08/10 02:43:45;;;;;;;185.37;53.47;;;;;;;;;;5051839;28;20457;-52
2023/08/10 02:46:11;;;;;;;184.97;53.43;;;;;;;;;;5051922;28;20448;-51
2023/08/10 02:48:37;;;;;;;183.70;52.95;;;;;;;;;;5051706;28;20915;-51
2023/08/10 02:51:03;;;;;;;183.67;53.17;;;;;;;;;;5051120;28;20309;-51
2023/08/10 02:53:29;;;;;;;183.52;53.22;;;;;;;;;;5051611;28;20416;-52
2023/08/10 02:55:55;;;;;;;186.80;55.07;;;;;;;;;;5051694;28;20210;-52
2023/08/10 02:58:21;;;;;;;184.00;53.50;;;;;;;;;;5051421;28;20401;-54
2023/08/10 03:00:48;;;;;;;182.73;52.75;;;;;;;;;;5050872;28;20937;-51
2023/08/10 03:03:14;;;;;;;184.05;53.08;;;;;;;;;;5051490;28;20198;-52
2023/08/10 03:05:40;;;;;;;183.95;53.05;;;;;;;;;;5051595;28;20253;-51
2023/08/10 03:08:06;;;;;;;186.27;53.87;;;;;;;;;;5051489;28;20253;-51
2023/08/10 03:10:32;;;;;;;186.25;53.97;;;;;;;;;;5051254;28;20433;-53
2023/08/10 03:12:58;;;;;;;184.80;52.87;;;;;;;;;;5051397;28;20182;-54
2023/08/10 03:15:24;;;;;;;183.77;52.53;;;;;;;;;;5051368;28;20414;-51
2023/08/10 03:17:51;;;;;;;184.95;53.10;;;;;;;;;;5051572;28;20402;-52
2023/08/10 03:20:17;;;;;;;187.57;54.97;;;;;;;;;;5051092;28;20588;-53
2023/08/10 03:22:43;;;;;;;184.03;52.87;;;;;;;;;;5051385;28;20285;-51
2023/08/10 03:25:09;;;;;;;186.20;54.17;;;;;;;;;;5051302;28;20407;-53
2023/08/10 03:27:36;;;;;;;186.45;54.10;;;;;;;;;;5043394;28;20175;-54
2023/08/10 03:30:03;;;;;;;185.52;53.75;;;;;;;;;;5049550;28;20167;-53
2023/08/10 03:32:29;;;;;;;187.18;54.58;;;;;;;;;;5047971;28;20167;-51
2023/08/10 03:34:55;;;;;;;184.10;54.58;;;;;;;;;;5051205;28;20588;-51
2023/08/10 03:37:21;;;;;;;182.67;52.50;;;;;;;;;;5051776;28;20245;-52
2023/08/10 03:39:47;;;;;;;185.53;55.40;;;;;;;;;;5051207;28;20413;-53
2023/08/10 03:42:13;;;;;;;185.77;55.45;;;;;;;;;;5051135;28;21003;-53
2023/08/10 03:44:39;;;;;;;185.13;54.50;;;;;;;;;;5049527;28;20205;-51
2023/08/10 03:47:05;;;;;;;184.27;52.90;;;;;;;;;;5051122;28;20163;-51
2023/08/10 03:49:31;;;;;;;184.60;53.47;;;;;;;;;;5050983;28;20767;-51
2023/08/10 03:51:57;;;;;;;186.27;53.70;;;;;;;;;;5050876;28;20197;-51
2023/08/10 03:54:23;;;;;;;187.57;54.80;;;;;;;;;;5051053;28;20178;-52
2023/08/10 03:56:48;;;;;;;184.03;54.67;;;;;;;;;;5051251;28;20492;-52
2023/08/10 03:59:15;;;;;;;182.30;52.57;;;;;;;;;;5049374;28;20409;-52
2023/08/10 04:01:41;;;;;;;183.65;53.28;;;;;;;;;;5050782;28;20433;-52
2023/08/10 04:04:08;;;;;;;183.70;53.70;;;;;;;;;;5050890;28;20210;-51
2023/08/10 04:06:34;;;;;;;183.60;53.10;;;;;;;;;;5051048;28;20183;-52
2023/08/10 04:09:00;;;;;;;183.80;53.50;;;;;;;;;;5044683;28;20178;-51
2023/08/10 04:11:26;;;;;;;184.07;52.83;;;;;;;;;;5047855;28;20429;-52
2023/08/10 04:13:52;;;;;;;187.20;54.40;;;;;;;;;;5054609;28;20167;-52
2023/08/10 04:16:18;;;;;;;182.90;52.73;;;;;;;;;;5055124;28;20405;-51
2023/08/10 04:18:44;;;;;;;184.00;53.33;;;;;;;;;;5054518;28;20413;-54
2023/08/10 04:21:10;;;;;;;185.17;53.37;;;;;;;;;;5054291;28;20429;-52
2023/08/10 04:23:37;;;;;;;187.88;54.20;;;;;;;;;;5054280;28;20555;-51
2023/08/10 04:26:03;;;;;;;186.43;53.07;;;;;;;;;;5053221;28;20612;-52
2023/08/10 04:28:30;;;;;;;187.50;54.03;;;;;;;;;;5049270;28;20468;-53
2023/08/10 04:30:56;;;;;;;185.63;52.85;;;;;;;;;;5053949;28;20429;-51
2023/08/10 04:33:22;;;;;;;184.10;53.37;;;;;;;;;;5053277;28;20578;-51
2023/08/10 04:35:48;;;;;;;183.10;52.37;;;;;;;;;;5054199;28;20440;-51
2023/08/10 04:38:14;;;;;;;182.73;52.77;;;;;;;;;;5054334;28;20462;-52
2023/08/10 04:40:41;;;;;;;182.68;52.38;;;;;;;;;;5052885;28;20512;-53
2023/08/10 04:43:07;;;;;;;182.80;52.20;;;;;;;;;;5049815;28;20741;-51
2023/08/10 04:45:34;;;;;;;185.20;54.17;;;;;;;;;;5053875;28;20651;-51
2023/08/10 04:48:00;;;;;;;184.13;53.75;;;;;;;;;;5054188;28;20228;-52
2023/08/10 04:50:26;;;;;;;185.17;53.67;;;;;;;;;;5053563;28;20303;-51
2023/08/10 04:52:52;;;;;;;184.27;54.08;;;;;;;;;;5054019;28;20792;-51
2023/08/10 04:55:19;;;;;;;183.00;52.63;;;;;;;;;;5053790;28;20568;-51
2023/08/10 04:57:45;;;;;;;183.57;52.95;;;;;;;;;;5053860;28;20178;-51
2023/08/10 05:00:14;;;;;;;184.23;53.30;;;;;;;;;;5053018;28;20183;-51
2023/08/10 05:02:40;;;;;;;183.63;53.08;;;;;;;;;;5045768;28;20496;-52
2023/08/10 05:05:06;;;;;;;183.60;53.15;;;;;;;;;;5051288;28;20250;-51
2023/08/10 05:07:33;;;;;;;185.15;53.00;;;;;;;;;;5053562;28;20669;-51
2023/08/10 05:09:59;;;;;;;183.07;52.78;;;;;;;;;;5053397;28;20246;-52
2023/08/10 05:12:25;;;;;;;184.52;53.00;;;;;;;;;;5053412;28;20241;-52
2023/08/10 05:14:51;;;;;;;183.40;53.00;;;;;;;;;;5052732;28;20179;-51
2023/08/10 05:17:17;;;;;;;183.35;52.88;;;;;;;;;;5053370;28;20421;-54
2023/08/10 05:19:43;;;;;;;183.40;53.80;;;;;;;;;;5053239;28;20167;-52
2023/08/10 05:22:09;;;;;;;181.80;52.17;;;;;;;;;;5053239;28;20274;-51
2023/08/10 05:24:36;;;;;;;184.00;52.88;;;;;;;;;;5047036;28;20852;-51
2023/08/10 05:27:02;;;;;;;183.45;52.88;;;;;;;;;;5053196;28;20163;-53
2023/08/10 05:29:28;;;;;;;182.90;53.10;;;;;;;;;;5052590;28;20300;-53
2023/08/10 05:31:54;;;;;;;182.38;52.22;;;;;;;;;;5052947;28;20425;-52
2023/08/10 05:34:20;;;;;;;187.30;53.73;;;;;;;;;;5049354;28;20224;-53
2023/08/10 05:36:46;;;;;;;185.07;52.75;;;;;;;;;;5053129;28;20488;-53
2023/08/10 05:39:12;;;;;;;184.73;52.90;;;;;;;;;;5053220;28;20300;-51
2023/08/10 05:41:38;;;;;;;185.40;53.27;;;;;;;;;;5052700;28;20421;-52
2023/08/10 05:44:05;;;;;;;186.03;53.43;;;;;;;;;;5052356;28;21050;-51
2023/08/10 05:46:31;;;;;;;186.00;52.97;;;;;;;;;;5052898;28;20405;-51
2023/08/10 05:48:57;;;;;;;186.47;53.03;;;;;;;;;;5053001;28;20659;-51
2023/08/10 05:51:23;;;;;;;198.00;69.15;;;;;;;;;;5052388;28;20450;-51
2023/08/10 05:53:49;;;;;;;182.30;51.90;;;;;;;;;;5052796;28;20584;-51
2023/08/10 05:56:15;;;;;;;186.73;53.87;;;;;;;;;;5052214;28;20440;-51
2023/08/10 05:58:41;;;;;;;184.47;52.57;;;;;;;;;;5052625;28;20406;-52
2023/08/10 06:01:07;;;;;;;186.70;53.67;;;;;;;;;;5051944;28;20441;-53
2023/08/10 06:03:33;;;;;;;185.57;53.50;;;;;;;;;;5051897;28;20443;-52
2023/08/10 06:06:00;;;;;;;183.20;52.17;;;;;;;;;;5052122;28;20501;-52
2023/08/10 06:08:26;;;;;;;182.95;52.28;;;;;;;;;;5051965;28;20459;-52
2023/08/10 06:10:52;;;;;;;182.32;52.47;;;;;;;;;;5051331;28;20226;-52
2023/08/10 06:13:18;;;;;;;183.53;53.37;;;;;;;;;;5052219;28;20202;-51
2023/08/10 06:15:47;;;;;;;184.90;54.13;;;;;;;;;;5051739;28;20401;-53
2023/08/10 06:18:13;;;;;;;184.70;52.53;;;;;;;;;;5048951;28;20179;-51
2023/08/10 06:20:40;;;;;;;181.93;52.25;;;;;;;;;;5049036;28;20198;-52
2023/08/10 06:23:06;;;;;;;183.90;53.03;;;;;;;;;;5045768;28;20544;-51
2023/08/10 06:25:33;;;;;;;184.23;53.15;;;;;;;;;;5051928;28;20174;-52
2023/08/10 06:27:59;;;;;;;184.57;53.58;;;;;;;;;;5051341;28;20529;-52
2023/08/10 06:30:25;;;;;;;184.40;52.92;;;;;;;;;;5051853;28;20305;-52
2023/08/10 06:32:51;;;;;;;183.88;52.80;;;;;;;;;;5050704;28;20210;-52
2023/08/10 06:35:19;;;;;;;185.25;54.35;;;;;;;;;;5051046;28;20187;-52
2023/08/10 06:37:48;;;;;;;185.23;53.90;;;;;;;;;;5047420;28;20163;-51
2023/08/10 06:40:15;;;;;;;186.25;55.17;;;;;;;;;;5051465;28;20216;-52
2023/08/10 06:42:41;;;;;;;183.93;53.00;;;;;;;;;;5051902;28;20635;-52
2023/08/10 06:45:08;;;;;;;182.02;52.20;;;;;;;;;;5048054;28;20237;-52
2023/08/10 06:47:34;;;;;;;186.55;54.05;;;;;;;;;;5051623;28;20188;-52
2023/08/10 06:50:00;;;;;;;185.13;52.93;;;;;;;;;;5046916;28;20190;-52
2023/08/10 06:52:26;;;;;;;187.53;55.93;;;;;;;;;;5051102;28;20432;-53
2023/08/10 06:54:52;;;;;;;187.50;54.75;;;;;;;;;;5046899;28;20406;-51
2023/08/10 06:57:19;;;;;;;185.60;53.20;;;;;;;;;;5051784;28;20207;-51
2023/08/10 06:59:45;;;;;;;194.40;60.85;;;;;;;;;;5049423;28;20737;-52
2023/08/10 07:02:11;;;;;;;187.10;54.27;;;;;;;;;;5051489;28;20203;-52
2023/08/10 07:04:37;;;;;;;185.73;53.73;;;;;;;;;;5046190;28;20929;-52
2023/08/10 07:07:03;;;;;;;186.40;53.50;;;;;;;;;;5052027;28;20463;-53
2023/08/10 07:09:29;;;;;;;186.82;55.65;;;;;;;;;;5051180;28;20451;-52
2023/08/10 07:11:55;;;;;;;184.68;54.33;;;;;;;;;;5051277;28;20187;-53
2023/08/10 07:14:21;;;;;;;184.38;53.95;;;;;;;;;;5051401;28;20756;-52
2023/08/10 07:16:47;;;;;;;184.75;54.63;;;;;;;;;;5051506;28;20203;-54
2023/08/10 07:19:13;;;;;;;184.90;54.30;;;;;;;;;;5051479;28;20181;-52
2023/08/10 07:21:39;;;;;;;183.93;53.27;;;;;;;;;;5051175;28;20427;-52
2023/08/10 07:24:05;;;;;;;185.57;54.40;;;;;;;;;;5050952;28;20462;-51
2023/08/10 07:26:32;;;;;;;188.52;57.10;;;;;;;;;;5051409;28;20407;-53
2023/08/10 07:28:57;;;;;;;186.85;55.65;;;;;;;;;;5051411;28;20164;-51
2023/08/10 07:31:31;;;;;;;187.27;56.50;;;;;;;;;;5051125;28;20683;-53
2023/08/10 07:33:57;;;;;;;184.88;54.63;;;;;;;;;;5051392;28;20421;-52
2023/08/10 07:36:25;;;;;;;186.20;55.20;;;;;;;;;;5051057;28;20169;-54
2023/08/10 07:38:51;;;;;;;185.95;54.92;;;;;;;;;;5051121;28;20882;-52
2023/08/10 07:41:17;;;;;;;187.87;57.57;;;;;;;;;;5049174;28;20282;-52
2023/08/10 07:43:43;;;;;;;188.97;56.87;;;;;;;;;;5051103;28;20464;-53
2023/08/10 07:46:09;;;;;;;189.35;58.20;;;;;;;;;;5042480;28;20407;-52
2023/08/10 07:48:36;;;;;;;187.63;55.10;;;;;;;;;;5052975;28;20164;-54
2023/08/10 07:51:03;;;;;;;187.67;55.53;;;;;;;;;;5049609;28;20718;-52
2023/08/10 07:53:29;;;;;;;190.20;57.22;;;;;;;;;;5054874;28;20508;-52
2023/08/10 07:55:55;;;;;;;190.07;58.42;;;;;;;;;;5053416;28;20228;-52
2023/08/10 07:58:21;;;;;;;188.07;55.67;;;;;;;;;;5051181;28;20257;-53
2023/08/10 08:00:47;;;;;;;189.40;57.47;;;;;;;;;;5054518;28;20447;-54
2023/08/10 08:03:13;;;;;;;190.60;58.03;;;;;;;;;;5054843;28;20472;-56
2023/08/10 08:05:40;;;;;;;191.40;58.43;;;;;;;;;;5054312;28;20401;-53
2023/08/10 08:08:07;;;;;;;192.27;61.20;;;;;;;;;;5046791;28;20429;-53
2023/08/10 08:10:33;;;;;;;193.20;60.60;;;;;;;;;;5053059;28;20475;-52
2023/08/10 08:12:59;;;;;;;190.67;57.33;;;;;;;;;;5050642;28;20428;-53
2023/08/10 08:15:26;;;;;;;192.27;60.97;;;;;;;;;;5052612;28;20461;-55
2023/08/10 08:18:21;;;;;;;189.83;57.47;;;;;;;;;;5051377;28;20913;-52
2023/08/10 08:20:46;;;;;;;190.67;58.27;;;;;;;;;;5041130;28;20448;-54
2023/08/10 08:23:12;;;;;;;192.37;61.57;;;;;;;;;;5055293;28;20451;-52
2023/08/10 08:25:39;;;;;;;191.27;60.77;;;;;;;;;;5052538;28;20500;-52
2023/08/10 08:28:05;;;;;;;192.97;61.47;;;;;;;;;;5051304;28;20401;-52
2023/08/10 08:30:31;;;;;;;195.37;64.17;;;;;;;;;;5049176;28;20448;-52
2023/08/10 08:32:57;;;;;;;194.87;62.70;;;;;;;;;;5049065;28;20407;-57
2023/08/10 08:35:24;;;;;;;193.90;61.37;;;;;;;;;;5054145;28;20444;-56
2023/08/10 08:37:50;;;;;;;190.53;59.50;;;;;;;;;;5053023;28;20479;-56
2023/08/10 08:40:16;;;;;;;192.73;60.73;;;;;;;;;;5051018;28;20892;-57
2023/08/10 08:42:44;;;;;;;193.47;62.53;;;;;;;;;;5052732;28;20504;-55
2023/08/10 08:45:10;;;;;;;194.57;63.37;;;;;;;;;;5050077;28;20424;-57
2023/08/10 08:47:37;;;;;;;196.10;64.77;;;;;;;;;;5053973;28;20424;-56
2023/08/10 08:50:03;;;;;;;197.53;65.87;;;;;;;;;;5053685;28;20931;-57
2023/08/10 08:52:29;;;;;;;192.83;61.20;;;;;;;;;;5052572;28;20432;-57
2023/08/10 08:54:58;;;;;;;195.13;66.20;;;;;;;;;;5054031;28;20485;-57
2023/08/10 08:57:24;;;;;;;195.30;65.27;;;;;;;;;;5049426;28;20775;-56
2023/08/10 08:59:50;;;;;;;200.20;70.23;;;;;;;;;;5049570;28;20413;-55
2023/08/10 09:02:16;;;;;;;192.80;65.03;;;;;;;;;;5050785;28;20432;-57
2023/08/10 09:04:42;;;;;;;196.37;68.57;;;;;;;;;;5053558;28;20464;-56
2023/08/10 09:07:08;;;;;;;195.17;65.20;;;;;;;;;;5052653;28;20766;-57
2023/08/10 09:09:36;;;;;;;192.90;63.53;;;;;;;;;;5053671;28;20890;-57
2023/08/10 09:12:21;;;;;;;196.67;69.40;;;;;;;;;;5053465;28;20790;-57
2023/08/10 09:15:01;;;;;;;194.47;67.13;;;;;;;;;;5046424;28;20903;-57
2023/08/10 09:17:27;;;;;;;194.10;67.37;;;;;;;;;;5045613;28;20750;-55
2023/08/10 09:19:54;;;;;;;196.83;67.90;;;;;;;;;;5052119;28;20413;-57
2023/08/10 09:22:32;;;;;;;191.40;62.83;;;;;;;;;;5045496;28;20429;-56
2023/08/10 09:24:58;;;;;;;196.03;69.40;;;;;;;;;;5052952;28;20460;-55
2023/08/10 09:27:26;;;;;;;195.60;65.87;;;;;;;;;;5052985;28;20408;-55
2023/08/10 09:29:56;;;;;;;199.53;71.60;;;;;;;;;;5047091;28;20410;-56
2023/08/10 09:32:22;;;;;;;196.23;70.13;;;;;;;;;;5052990;28;20429;-56
2023/08/10 09:34:48;;;;;;;198.10;70.80;;;;;;;;;;5053165;28;20444;-56
2023/08/10 09:37:15;;;;;;;195.60;68.37;;;;;;;;;;5053393;28;20471;-56
2023/08/10 09:39:41;;;;;;;197.73;69.33;;;;;;;;;;5052781;28;20917;-57
2023/08/10 09:42:07;;;;;;;196.30;68.17;;;;;;;;;;5052974;28;20519;-56
2023/08/10 09:44:46;;;;;;;200.87;72.10;;;;;;;;;;5052652;28;20476;-56
2023/08/10 09:47:13;;;;;;;196.57;66.13;;;;;;;;;;5052350;28;20488;-56
2023/08/10 09:49:40;;;;;;;200.90;73.20;;;;;;;;;;5052371;28;20455;-54
2023/08/10 09:52:07;;;;;;;201.47;75.40;;;;;;;;;;5051902;28;20491;-57
2023/08/10 09:54:33;;;;;;;199.90;74.47;;;;;;;;;;5052423;28;20416;-57
2023/08/10 09:56:59;;;;;;;196.87;70.30;;;;;;;;;;5052700;28;20433;-55
2023/08/10 09:59:25;;;;;;;196.20;68.30;;;;;;;;;;5052456;28;20402;-55
2023/08/10 10:01:53;;;;;;;194.30;66.27;;;;;;;;;;5051499;28;20425;-56
2023/08/10 10:04:19;;;;;;;198.30;71.03;;;;;;;;;;5051192;28;20460;-57
2023/08/10 10:06:46;;;;;;;195.87;68.87;;;;;;;;;;5052582;28;20432;-56
2023/08/10 10:09:12;;;;;;;196.57;70.27;;;;;;;;;;5052456;28;20946;-57
2023/08/10 10:11:39;;;;;;;195.97;70.00;;;;;;;;;;5052188;28;20433;-56
2023/08/10 10:14:05;;;;;;;196.50;69.30;;;;;;;;;;5052484;28;20437;-57
2023/08/10 10:16:32;;;;;;;198.50;74.93;;;;;;;;;;5052354;28;20495;-56
2023/08/10 10:18:59;;;;;;;196.77;72.83;;;;;;;;;;5052294;28;20409;-56
2023/08/10 10:21:25;;;;;;;195.17;68.57;;;;;;;;;;5052015;28;20448;-56
2023/08/10 10:23:55;;;;;;;196.20;69.00;;;;;;;;;;5052182;28;20559;-56
2023/08/10 10:26:21;;;;;;;194.90;68.93;;;;;;;;;;5051946;28;20394;-56
2023/08/10 10:29:07;;;;;;;206.03;81.90;;;;;;;;;;5035676;28;20455;-57
2023/08/10 10:31:33;;;;;;;197.77;73.93;;;;;;;;;;5035751;28;20445;-56
2023/08/10 10:34:02;;;;;;;194.23;68.47;;;;;;;;;;5049271;28;20421;-55
2023/08/10 10:36:28;;;;;;;194.67;67.33;;;;;;;;;;5052157;28;20421;-57
2023/08/10 10:38:55;;;;;;;198.90;74.83;;;;;;;;;;5062383;28;20404;-56
2023/08/10 10:41:31;;;;;;;197.10;75.03;;;;;;;;;;5063540;28;20433;-56
2023/08/10 10:44:00;;;;;;;196.87;72.70;;;;;;;;;;5051706;28;20486;-55
2023/08/10 10:46:38;;;;;;;200.27;77.93;;;;;;;;;;5051470;28;20954;-56
2023/08/10 10:49:07;;;;;;;193.63;68.83;;;;;;;;;;5052020;28;20417;-56
2023/08/10 10:51:33;;;;;;;197.97;72.43;;;;;;;;;;5051465;28;20536;-55
2023/08/10 10:53:59;;;;;;;197.83;72.33;;;;;;;;;;5052341;28;20437;-56
2023/08/10 10:56:25;;;;;;;194.77;67.77;;;;;;;;;;5051718;28;20859;-57
2023/08/10 10:58:51;;;;;;;199.63;76.63;;;;;;;;;;5051873;28;20421;-56
2023/08/10 11:01:21;;;;;;;196.30;72.47;;;;;;;;;;5051436;28;20856;-57
2023/08/10 11:03:54;;;;;;;195.97;71.67;;;;;;;;;;5051408;28;20497;-53
2023/08/10 11:06:20;;;;;;;200.07;77.20;;;;;;;;;;5044271;28;20418;-57
2023/08/10 11:08:51;;;;;;;200.70;77.27;;;;;;;;;;5031646;28;20815;-55
2023/08/10 11:11:17;;;;;;;196.10;71.97;;;;;;;;;;5030846;28;20470;-57
2023/08/10 11:13:43;;;;;;;197.63;76.17;;;;;;;;;;5031691;28;20406;-57
2023/08/10 11:16:09;;;;;;;206.80;81.60;;;;;;;;;;5031680;28;20976;-57
2023/08/10 11:18:37;;;;;;;198.33;75.03;;;;;;;;;;5031568;28;20427;-57
2023/08/10 11:21:06;;;;;;;199.60;78.47;;;;;;;;;;5044549;28;20519;-57
2023/08/10 11:23:32;;;;;;;198.87;72.50;;;;;;;;;;5057585;28;20971;-55
2023/08/10 11:25:59;;;;;;;199.70;75.27;;;;;;;;;;5058182;28;20412;-57
2023/08/10 11:28:26;;;;;;;202.30;80.23;;;;;;;;;;5058073;28;20539;-57
2023/08/10 11:30:53;;;;;;;196.97;70.57;;;;;;;;;;5057732;28;20424;-56
2023/08/10 11:33:19;;;;;;;195.77;71.30;;;;;;;;;;5058056;28;20412;-56
2023/08/10 11:35:50;;;;;;;198.47;73.33;;;;;;;;;;5039795;28;20808;-57
2023/08/10 11:38:16;;;;;;;193.53;66.90;;;;;;;;;;5053631;28;20893;-57
2023/08/10 11:40:42;;;;;;;195.00;69.43;;;;;;;;;;5057724;28;20524;-55
2023/08/10 11:43:10;;;;;;;195.73;72.47;;;;;;;;;;5057958;28;20468;-55
2023/08/10 11:45:37;;;;;;;195.77;69.10;;;;;;;;;;5057805;28;20781;-55
2023/08/10 11:48:06;;;;;;;195.20;69.00;;;;;;;;;;5058282;28;20428;-56
2023/08/10 11:50:32;;;;;;;195.93;71.33;;;;;;;;;;5057344;28;20444;-57
2023/08/10 11:53:09;;;;;;;195.37;70.73;;;;;;;;;;5049740;28;20421;-56
2023/08/10 11:55:35;;;;;;;197.30;73.27;;;;;;;;;;5041603;28;20416;-55
2023/08/10 11:58:01;;;;;;;194.80;68.53;;;;;;;;;;5054907;28;20413;-55
2023/08/10 12:00:33;;;;;;;198.03;76.60;;;;;;;;;;5057534;28;20474;-57
2023/08/10 12:03:31;;;;;;;193.83;69.50;;;;;;;;;;5057461;28;20408;-57
2023/08/10 12:06:04;;;;;;;196.03;74.20;;;;;;;;;;5036478;28;20460;-56
2023/08/10 12:08:32;;;;;;;199.47;77.27;;;;;;;;;;5048725;28;20448;-56
2023/08/10 12:11:01;;;;;;;201.53;77.93;;;;;;;;;;5057082;28;20429;-57
2023/08/10 12:13:27;;;;;;;197.47;74.07;;;;;;;;;;5056767;28;20500;-55
2023/08/10 12:15:54;;;;;;;198.23;76.37;;;;;;;;;;5057964;28;20417;-56
2023/08/10 12:18:21;;;;;;;199.07;75.53;;;;;;;;;;5057592;28;20412;-56
2023/08/10 12:20:48;;;;;;;198.27;77.73;;;;;;;;;;5056823;28;20632;-56
2023/08/10 12:23:14;;;;;;;198.40;75.03;;;;;;;;;;5057431;28;20551;-56
2023/08/10 12:25:41;;;;;;;195.47;71.20;;;;;;;;;;5056726;28;20416;-55
2023/08/10 12:28:07;;;;;;;195.40;72.47;;;;;;;;;;5057334;28;20405;-56
2023/08/10 12:30:33;;;;;;;195.57;68.33;;;;;;;;;;5057161;28;20425;-56
2023/08/10 12:32:59;;;;;;;195.97;71.83;;;;;;;;;;5056487;28;20495;-57
2023/08/10 12:35:26;;;;;;;196.47;68.60;;;;;;;;;;5054376;28;20957;-56
2023/08/10 12:37:52;;;;;;;195.97;69.37;;;;;;;;;;5054016;28;20409;-57
2023/08/10 12:40:18;;;;;;;196.33;70.37;;;;;;;;;;5053982;28;20432;-56
2023/08/10 12:42:44;;;;;;;199.87;74.13;;;;;;;;;;5049041;28;20409;-57
2023/08/10 12:45:11;;;;;;;197.33;71.00;;;;;;;;;;5054077;28;20839;-56
2023/08/10 12:47:40;;;;;;;197.87;71.27;;;;;;;;;;5053991;28;20444;-56
2023/08/10 12:50:07;;;;;;;196.17;69.33;;;;;;;;;;5053126;28;20421;-55
2023/08/10 12:52:33;;;;;;;197.67;72.80;;;;;;;;;;5053586;28;20413;-57
2023/08/10 12:55:00;;;;;;;196.60;71.37;;;;;;;;;;5053984;28;20437;-57
2023/08/10 12:57:26;;;;;;;195.93;68.77;;;;;;;;;;5053894;28;20484;-57
2023/08/10 12:59:52;;;;;;;199.23;72.50;;;;;;;;;;5053696;28;20837;-57
2023/08/10 13:02:18;;;;;;;194.17;67.43;;;;;;;;;;5053731;28;20437;-57
2023/08/10 13:04:44;;;;;;;196.67;73.60;;;;;;;;;;5053368;28;20465;-57
2023/08/10 13:07:10;;;;;;;196.50;70.67;;;;;;;;;;5041235;28;20426;-55
2023/08/10 13:09:36;;;;;;;192.87;65.57;;;;;;;;;;5053586;28;20413;-53
2023/08/10 13:12:02;;;;;;;197.30;70.40;;;;;;;;;;5053303;28;20715;-57
2023/08/10 13:14:28;;;;;;;199.93;72.77;;;;;;;;;;5053569;28;20463;-57
2023/08/10 13:16:54;;;;;;;196.40;69.70;;;;;;;;;;5053768;28;20405;-57
2023/08/10 13:19:20;;;;;;;199.03;70.70;;;;;;;;;;5053085;28;20905;-57
2023/08/10 13:21:46;;;;;;;195.37;69.57;;;;;;;;;;5053297;28;20490;-57
2023/08/10 13:24:12;;;;;;;195.03;66.83;;;;;;;;;;5053304;28;20457;-57
2023/08/10 13:26:38;;;;;;;197.07;69.20;;;;;;;;;;5053180;28;20831;-56
2023/08/10 13:29:04;;;;;;;198.53;73.13;;;;;;;;;;5053460;28;20492;-57
2023/08/10 13:31:30;;;;;;;193.57;65.73;;;;;;;;;;5052983;28;21005;-57
2023/08/10 13:33:56;;;;;;;193.60;67.03;;;;;;;;;;5053248;28;20909;-55
2023/08/10 13:36:22;;;;;;;197.20;71.80;;;;;;;;;;5053134;28;20421;-56
2023/08/10 13:38:48;;;;;;;196.77;69.43;;;;;;;;;;5053122;28;20492;-56
2023/08/10 13:41:14;;;;;;;197.77;72.50;;;;;;;;;;5052666;28;20512;-56
2023/08/10 13:43:40;;;;;;;199.70;74.73;;;;;;;;;;5052872;28;20461;-56
2023/08/10 13:46:06;;;;;;;199.40;75.23;;;;;;;;;;5052474;28;20409;-57
2023/08/10 13:48:33;;;;;;;199.67;77.07;;;;;;;;;;5051633;28;20428;-57
2023/08/10 13:50:59;;;;;;;201.90;76.60;;;;;;;;;;5050927;28;21010;-57
2023/08/10 13:53:25;;;;;;;197.87;73.30;;;;;;;;;;5051246;28;20412;-57
2023/08/10 13:55:51;;;;;;;199.53;76.67;;;;;;;;;;5053585;28;20429;-57
2023/08/10 13:58:17;;;;;;;200.97;75.90;;;;;;;;;;5053087;28;20499;-57
2023/08/10 14:00:43;;;;;;;199.07;73.63;;;;;;;;;;5044202;28;20444;-56
2023/08/10 14:03:09;;;;;;;196.33;71.80;;;;;;;;;;5051272;28;20453;-57